Time;durP1;ratioP1;P1;durP2;ratioP2;P2;SDS_P1;SDS_P2;PMS_P1;PMS_P2;Temp;Humidity;BMP_temperature;BMP_pressure;BME280_temperature;BME280_humidity;BME280_pressure;Samples;Min_cycle;Max_cycle;Signal;HPM_P1;HPM_P2
2023/02/19 00:00:14;;;;;;;6.68;3.97;;;9.90;87.20;;;;;;4984089;28;20072;-60
2023/02/19 00:02:42;;;;;;;5.78;3.75;;;9.90;87.20;;;;;;4982246;28;20606;-69
2023/02/19 00:05:13;;;;;;;5.80;3.20;;;9.90;87.20;;;;;;4982944;28;20074;-70
2023/02/19 00:07:46;;;;;;;5.05;2.80;;;9.90;87.30;;;;;;4979610;28;20128;-70
2023/02/19 00:10:13;;;;;;;8.30;4.80;;;9.90;87.30;;;;;;4961033;28;20047;-68
2023/02/19 00:12:40;;;;;;;4.82;3.25;;;9.90;87.40;;;;;;4970985;28;20046;-69
2023/02/19 00:15:07;;;;;;;6.93;3.60;;;9.90;87.40;;;;;;4984580;28;20054;-70
2023/02/19 00:17:36;;;;;;;7.50;3.88;;;9.80;87.50;;;;;;4978843;28;20073;-69
2023/02/19 00:20:03;;;;;;;7.13;4.03;;;9.80;87.50;;;;;;4987105;28;20050;-70
2023/02/19 00:22:29;;;;;;;7.38;3.75;;;9.90;87.60;;;;;;4985941;28;20153;-60
2023/02/19 00:24:56;;;;;;;7.18;3.20;;;9.80;87.50;;;;;;4977731;28;20055;-60
2023/02/19 00:27:23;;;;;;;6.38;3.55;;;9.80;87.60;;;;;;4981248;28;20050;-61
2023/02/19 00:29:51;;;;;;;5.82;3.65;;;9.80;87.60;;;;;;4981123;28;20068;-61
2023/02/19 00:32:18;;;;;;;9.40;4.03;;;9.80;87.70;;;;;;4992133;28;20051;-61
2023/02/19 00:34:46;;;;;;;6.93;3.75;;;9.80;87.80;;;;;;5009728;28;20061;-61
2023/02/19 00:37:13;;;;;;;6.00;3.22;;;9.70;88.00;;;;;;4990033;28;20060;-62
2023/02/19 00:39:40;;;;;;;7.60;4.15;;;9.80;87.90;;;;;;4987428;28;20054;-62
2023/02/19 00:42:06;;;;;;;6.53;3.80;;;9.70;88.10;;;;;;4994103;28;20047;-61
2023/02/19 00:44:33;;;;;;;6.07;3.88;;;9.80;88.10;;;;;;4987408;28;20050;-62
2023/02/19 00:47:00;;;;;;;6.80;3.90;;;9.80;88.20;;;;;;5023411;28;20058;-61
2023/02/19 00:49:28;;;;;;;6.18;3.90;;;9.70;88.40;;;;;;4985809;28;20061;-61
2023/02/19 00:51:56;;;;;;;8.18;3.70;;;9.70;88.40;;;;;;4975609;28;20057;-61
2023/02/19 00:54:24;;;;;;;6.60;3.88;;;9.70;88.40;;;;;;4990354;28;20052;-61
2023/02/19 00:56:51;;;;;;;8.15;4.15;;;9.70;88.30;;;;;;4989460;28;20058;-61
2023/02/19 00:59:18;;;;;;;5.55;3.42;;;9.70;88.10;;;;;;4988142;28;20054;-62
2023/02/19 01:01:45;;;;;;;6.70;3.90;;;9.80;88.00;;;;;;4986735;28;20485;-62
2023/02/19 01:04:12;;;;;;;6.53;4.00;;;9.70;87.90;;;;;;4985224;28;20420;-63
2023/02/19 01:06:40;;;;;;;6.10;3.80;;;9.80;87.80;;;;;;4978719;28;20061;-65
2023/02/19 01:09:08;;;;;;;6.03;3.67;;;9.80;87.70;;;;;;4977727;28;20051;-63
2023/02/19 01:11:35;;;;;;;5.32;3.63;;;9.70;87.70;;;;;;4985595;28;20047;-62
2023/02/19 01:14:03;;;;;;;5.50;3.85;;;9.70;87.70;;;;;;4981400;28;20051;-62
2023/02/19 01:16:31;;;;;;;6.28;3.92;;;9.70;87.70;;;;;;4987718;28;20056;-63
2023/02/19 01:19:00;;;;;;;6.05;3.83;;;9.70;87.70;;;;;;5006050;28;20374;-62
2023/02/19 01:21:30;;;;;;;6.82;4.00;;;9.70;87.70;;;;;;4983177;28;20084;-63
2023/02/19 01:23:59;;;;;;;6.85;4.05;;;9.70;87.70;;;;;;4984857;28;20050;-62
2023/02/19 01:26:29;;;;;;;6.87;4.53;;;9.80;87.70;;;;;;4990716;28;20050;-63
2023/02/19 01:28:57;;;;;;;7.90;4.22;;;9.70;87.70;;;;;;4978720;28;20054;-63
2023/02/19 01:31:25;;;;;;;5.88;3.42;;;9.70;87.70;;;;;;4974450;28;20497;-62
2023/02/19 01:33:54;;;;;;;7.50;4.43;;;9.70;87.70;;;;;;4984861;28;20137;-62
2023/02/19 01:36:20;;;;;;;6.70;4.38;;;9.70;87.70;;;;;;4976663;28;20084;-62
2023/02/19 01:38:48;;;;;;;8.68;4.18;;;9.70;87.70;;;;;;4988138;28;20050;-62
2023/02/19 01:41:17;;;;;;;5.40;3.67;;;9.70;87.70;;;;;;4993871;28;20046;-63
2023/02/19 01:44:00;;;;;;;8.77;4.28;;;9.70;87.60;;;;;;4988054;28;20042;-62
2023/02/19 01:46:28;;;;;;;8.23;4.10;;;9.70;87.70;;;;;;5003947;28;20161;-69
2023/02/19 01:48:59;;;;;;;7.72;4.53;;;9.70;87.70;;;;;;4984183;28;20055;-68
2023/02/19 01:51:26;;;;;;;6.88;3.72;;;9.70;87.70;;;;;;4980601;28;20050;-61
2023/02/19 01:53:59;;;;;;;7.05;4.55;;;9.70;87.70;;;;;;4990876;28;20049;-61
2023/02/19 01:56:27;;;;;;;7.85;4.50;;;9.70;87.80;;;;;;4980232;28;20125;-61
2023/02/19 01:58:54;;;;;;;6.18;4.20;;;9.70;87.80;;;;;;4959101;28;20054;-60
2023/02/19 02:01:22;;;;;;;8.18;4.30;;;9.70;87.90;;;;;;4981710;28;20046;-60
2023/02/19 02:03:50;;;;;;;6.65;4.03;;;9.70;87.90;;;;;;4984076;28;20054;-61
2023/02/19 02:06:22;;;;;;;7.93;3.90;;;9.70;88.00;;;;;;4988007;28;20106;-62
2023/02/19 02:11:36;;;;;;;6.70;3.78;;;9.70;88.30;;;;;;4974167;28;20055;-60
2023/02/19 02:14:05;;;;;;;6.35;3.88;;;9.70;88.40;;;;;;4985143;28;20496;-60
2023/02/19 02:16:42;;;;;;;6.03;3.70;;;9.70;88.40;;;;;;4986201;28;20065;-61
2023/02/19 02:19:29;;;;;;;6.75;3.70;;;9.70;88.60;;;;;;4972257;28;20058;-61
2023/02/19 02:22:06;;;;;;;7.43;3.92;;;9.70;88.70;;;;;;4968547;28;20092;-61
2023/02/19 02:25:05;;;;;;;6.70;4.30;;;9.70;88.80;;;;;;4983873;28;20066;-61
2023/02/19 02:27:48;;;;;;;7.13;4.22;;;9.70;88.80;;;;;;5009897;28;20051;-61
2023/02/19 02:30:31;;;;;;;6.68;3.95;;;9.70;88.80;;;;;;4982189;28;20074;-61
2023/02/19 02:33:09;;;;;;;6.63;3.85;;;9.60;88.70;;;;;;5015069;28;20052;-61
2023/02/19 02:35:44;;;;;;;6.35;3.63;;;9.60;88.70;;;;;;4980656;28;20110;-61
2023/02/19 02:38:12;;;;;;;5.78;3.90;;;9.70;88.80;;;;;;5023439;28;20061;-61
2023/02/19 02:40:43;;;;;;;5.70;3.38;;;9.70;89.00;;;;;;4979468;28;20053;-61
2023/02/19 02:43:12;;;;;;;6.22;3.67;;;9.60;89.00;;;;;;5019155;27;20054;-62
2023/02/19 02:45:41;;;;;;;7.18;3.95;;;9.70;89.10;;;;;;4993896;28;20055;-62
2023/02/19 02:48:34;;;;;;;7.70;4.28;;;9.70;89.20;;;;;;4985180;28;20516;-61
2023/02/19 02:51:09;;;;;;;9.82;5.00;;;9.70;89.30;;;;;;4982485;28;20046;-62
2023/02/19 02:56:33;;;;;;;;;;;9.60;89.30;;;;;;4979754;28;20061;-62
2023/02/19 02:59:03;;;;;;;6.97;3.78;;;9.60;89.50;;;;;;4980001;28;20012;-62
2023/02/19 03:04:26;;;;;;;6.63;3.75;;;9.60;89.40;;;;;;4993446;28;20055;-61
2023/02/19 03:06:55;;;;;;;5.75;3.50;;;9.60;89.60;;;;;;4980428;28;20507;-61
2023/02/19 03:09:29;;;;;;;7.57;3.50;;;9.60;89.50;;;;;;4972701;28;20092;-61
2023/02/19 03:20:25;;;;;;;;;;;9.50;89.70;;;;;;5010434;28;20058;-62
2023/02/19 03:22:55;;;;;;;5.28;3.38;;;9.60;89.60;;;;;;4992073;28;19932;-62
2023/02/19 03:28:16;;;;;;;5.57;3.00;;;9.60;89.90;;;;;;4954499;28;20153;-62
2023/02/19 03:30:50;;;;;;;5.30;3.53;;;9.60;89.90;;;;;;4970099;28;20059;-61
2023/02/19 03:33:22;;;;;;;5.90;3.50;;;9.50;89.80;;;;;;4976886;28;20046;-65
2023/02/19 03:35:53;;;;;;;7.40;3.42;;;9.50;90.20;;;;;;4982384;28;20475;-61
2023/02/19 03:38:25;;;;;;;6.65;3.35;;;9.50;90.30;;;;;;4984851;28;20073;-60
2023/02/19 03:40:58;;;;;;;5.32;2.92;;;9.50;90.30;;;;;;4979022;28;20489;-61
2023/02/19 03:43:38;;;;;;;7.00;3.58;;;9.50;90.40;;;;;;4987699;28;20047;-61
2023/02/19 03:46:11;;;;;;;6.25;3.30;;;9.40;90.60;;;;;;4996072;28;20527;-62
2023/02/19 03:48:48;;;;;;;5.45;3.05;;;9.40;90.60;;;;;;4975894;28;20046;-60
2023/02/19 03:51:31;;;;;;;5.93;3.30;;;9.40;90.60;;;;;;4980374;28;20053;-61
2023/02/19 03:54:09;;;;;;;5.57;3.28;;;9.40;90.60;;;;;;4995843;28;20369;-61
2023/02/19 03:56:43;;;;;;;5.88;3.17;;;9.40;90.70;;;;;;4986456;28;20105;-62
2023/02/19 03:59:14;;;;;;;7.15;3.63;;;9.40;91.00;;;;;;4989926;28;20054;-61
2023/02/19 04:01:46;;;;;;;5.93;3.30;;;9.30;90.90;;;;;;4989169;28;20047;-61
2023/02/19 04:04:18;;;;;;;5.97;3.17;;;9.30;90.90;;;;;;5007655;28;20133;-61
2023/02/19 04:06:51;;;;;;;5.28;3.20;;;9.40;90.80;;;;;;4985183;28;20061;-62
2023/02/19 04:09:20;;;;;;;5.13;3.00;;;9.40;90.90;;;;;;4980225;28;20512;-63
2023/02/19 04:11:54;;;;;;;4.72;2.70;;;9.40;90.90;;;;;;5076287;28;20071;-61
2023/02/19 04:14:24;;;;;;;6.00;3.13;;;9.40;90.50;;;;;;5002229;28;20043;-61
2023/02/19 04:16:58;;;;;;;5.95;2.92;;;9.40;90.80;;;;;;4978483;28;20050;-62
2023/02/19 04:19:28;;;;;;;5.60;3.08;;;9.40;90.70;;;;;;4981611;28;20057;-60
2023/02/19 04:21:57;;;;;;;6.32;3.58;;;9.40;90.50;;;;;;4987378;28;20046;-62
2023/02/19 04:24:29;;;;;;;8.57;4.05;;;9.50;90.60;;;;;;4993846;28;21299;-62
2023/02/19 04:26:56;;;;;;;6.22;3.67;;;9.50;90.50;;;;;;4982445;28;20057;-62
2023/02/19 04:29:23;;;;;;;6.97;3.60;;;9.40;90.50;;;;;;5025437;28;20048;-61
2023/02/19 04:31:50;;;;;;;5.57;3.15;;;9.40;90.60;;;;;;4976136;28;20059;-61
2023/02/19 04:34:17;;;;;;;6.25;2.88;;;9.40;90.50;;;;;;4982325;28;20061;-62
2023/02/19 04:36:45;;;;;;;5.30;3.40;;;9.40;90.50;;;;;;4977548;28;20476;-62
2023/02/19 04:39:12;;;;;;;4.40;2.75;;;9.40;90.60;;;;;;4982564;28;20377;-62
2023/02/19 04:41:39;;;;;;;6.53;3.20;;;9.40;90.70;;;;;;4977635;28;20489;-61
2023/02/19 04:44:05;;;;;;;5.13;2.78;;;9.40;90.60;;;;;;4987453;28;20042;-60
2023/02/19 04:46:32;;;;;;;7.47;3.05;;;9.40;90.80;;;;;;4972135;28;20088;-61
2023/02/19 04:48:59;;;;;;;4.28;2.58;;;9.40;90.70;;;;;;4958642;28;20046;-61
2023/02/19 04:51:26;;;;;;;5.18;3.00;;;9.40;90.80;;;;;;4989209;28;20111;-62
2023/02/19 04:53:55;;;;;;;4.60;2.70;;;9.40;90.60;;;;;;4973703;28;20119;-62
2023/02/19 04:56:22;;;;;;;5.07;2.85;;;9.40;90.60;;;;;;4973339;28;20517;-62
2023/02/19 04:58:49;;;;;;;4.68;2.75;;;9.40;90.40;;;;;;4989040;28;20062;-61
2023/02/19 05:01:18;;;;;;;4.50;2.40;;;9.40;90.60;;;;;;4962706;28;20057;-62
2023/02/19 05:03:45;;;;;;;3.88;2.28;;;9.40;90.40;;;;;;4982989;28;20214;-62
2023/02/19 05:06:13;;;;;;;6.00;2.58;;;9.40;90.40;;;;;;4984420;28;20054;-62
2023/02/19 05:08:46;;;;;;;3.92;2.38;;;9.40;90.50;;;;;;4986389;28;20055;-61
2023/02/19 05:11:15;;;;;;;4.63;2.40;;;9.40;90.50;;;;;;4986959;28;20133;-60
2023/02/19 05:13:48;;;;;;;5.18;2.53;;;9.40;90.40;;;;;;4984825;28;20058;-61
2023/02/19 05:16:16;;;;;;;4.18;2.28;;;9.40;90.40;;;;;;4981739;28;20061;-62
2023/02/19 05:18:44;;;;;;;4.20;2.22;;;9.40;90.40;;;;;;4984026;28;20481;-61
2023/02/19 05:21:14;;;;;;;4.28;2.63;;;9.40;90.50;;;;;;4985671;28;20096;-62
2023/02/19 05:23:41;;;;;;;3.57;2.27;;;9.40;90.40;;;;;;4996142;28;20058;-61
2023/02/19 05:26:11;;;;;;;4.60;2.33;;;9.40;90.50;;;;;;4978959;28;20474;-61
2023/02/19 05:28:39;;;;;;;4.75;2.38;;;9.40;90.50;;;;;;4982423;28;20054;-62
2023/02/19 05:31:08;;;;;;;4.47;2.15;;;9.40;90.50;;;;;;4986369;28;20501;-61
2023/02/19 05:33:35;;;;;;;5.18;2.67;;;9.40;90.50;;;;;;4984678;28;20050;-61
2023/02/19 05:36:06;;;;;;;4.38;2.08;;;9.40;90.40;;;;;;4980062;28;20051;-61
2023/02/19 05:38:34;;;;;;;3.90;2.20;;;9.40;90.60;;;;;;4990145;28;20054;-61
2023/02/19 05:41:11;;;;;;;3.67;2.08;;;9.40;90.70;;;;;;4973421;28;20046;-62
2023/02/19 05:43:45;;;;;;;3.33;1.90;;;9.40;90.70;;;;;;4980616;28;20062;-62
2023/02/19 05:46:12;;;;;;;;;;;9.30;90.80;;;;;;4978049;28;20058;-61
2023/02/19 05:48:39;;;;;;;3.47;1.90;;;9.40;90.60;;;;;;4991326;28;20427;-62
2023/02/19 05:51:08;;;;;;;4.22;2.13;;;9.40;90.80;;;;;;4966820;28;20066;-62
2023/02/19 05:53:35;;;;;;;3.78;1.90;;;9.40;90.70;;;;;;4990701;28;20050;-60
2023/02/19 05:56:02;;;;;;;3.33;1.83;;;9.40;90.80;;;;;;4985148;28;20314;-61
2023/02/19 05:58:29;;;;;;;2.83;1.63;;;9.30;90.90;;;;;;4986473;28;20175;-62
2023/02/19 06:00:57;;;;;;;4.15;1.90;;;9.30;90.60;;;;;;4979056;28;20047;-62
2023/02/19 06:03:24;;;;;;;4.10;1.95;;;9.30;90.90;;;;;;4979234;28;20051;-62
2023/02/19 06:05:51;;;;;;;4.00;2.30;;;9.30;90.70;;;;;;4978954;28;20180;-61
2023/02/19 06:08:18;;;;;;;4.10;2.15;;;9.30;90.70;;;;;;4966065;28;20058;-61
2023/02/19 06:10:45;;;;;;;3.85;2.15;;;9.30;90.80;;;;;;4987420;28;20046;-62
2023/02/19 06:13:12;;;;;;;4.90;1.92;;;9.40;90.80;;;;;;4982353;28;20066;-62
2023/02/19 06:15:43;;;;;;;4.95;2.10;;;9.30;90.60;;;;;;4985655;28;20092;-62
2023/02/19 06:18:11;;;;;;;4.03;2.10;;;9.30;90.90;;;;;;4982461;28;20065;-63
2023/02/19 06:20:38;;;;;;;4.45;1.85;;;9.30;90.90;;;;;;4985708;28;20056;-61
2023/02/19 06:23:05;;;;;;;4.18;2.13;;;9.30;90.90;;;;;;4974099;28;20047;-63
2023/02/19 06:25:31;;;;;;;4.25;2.00;;;9.30;91.00;;;;;;4982810;28;20043;-62
2023/02/19 06:27:58;;;;;;;4.82;1.95;;;9.30;90.80;;;;;;4982534;28;20047;-61
2023/02/19 06:30:25;;;;;;;2.53;1.73;;;9.40;90.80;;;;;;4982243;28;20468;-60
2023/02/19 06:32:53;;;;;;;3.67;1.58;;;9.30;90.90;;;;;;4981956;28;20053;-61
2023/02/19 06:35:22;;;;;;;3.80;2.10;;;9.30;90.90;;;;;;4987116;28;20125;-63
2023/02/19 06:37:52;;;;;;;3.00;1.70;;;9.30;90.90;;;;;;4984250;28;20050;-62
2023/02/19 06:40:19;;;;;;;4.78;1.35;;;9.30;90.90;;;;;;4990181;28;20468;-63
2023/02/19 06:42:46;;;;;;;2.25;1.42;;;9.30;90.60;;;;;;4973254;28;20046;-61
2023/02/19 06:45:14;;;;;;;2.80;1.50;;;9.30;90.70;;;;;;4979493;28;20108;-62
2023/02/19 06:47:41;;;;;;;3.20;1.23;;;9.30;90.60;;;;;;4981664;28;20050;-62
2023/02/19 06:50:08;;;;;;;3.83;1.60;;;9.40;90.60;;;;;;4979492;28;20064;-62
2023/02/19 06:52:36;;;;;;;2.33;1.23;;;9.30;90.60;;;;;;4979001;28;20074;-61
2023/02/19 06:55:03;;;;;;;2.40;1.42;;;9.40;90.50;;;;;;4985396;28;20046;-62
2023/02/19 06:57:30;;;;;;;2.20;1.30;;;9.30;90.60;;;;;;4978388;28;20044;-62
2023/02/19 06:59:57;;;;;;;1.90;1.30;;;9.30;90.70;;;;;;4994195;28;20061;-62
2023/02/19 07:02:23;;;;;;;2.70;1.50;;;9.30;90.70;;;;;;4975668;28;20073;-64
2023/02/19 07:04:50;;;;;;;3.10;1.38;;;9.30;90.80;;;;;;4976288;28;20050;-61
2023/02/19 07:07:17;;;;;;;2.55;1.40;;;9.30;90.80;;;;;;4985991;28;20066;-63
2023/02/19 07:09:45;;;;;;;2.70;1.30;;;9.30;90.70;;;;;;4981848;28;20058;-62
2023/02/19 07:12:12;;;;;;;2.95;1.40;;;9.30;90.80;;;;;;4979051;28;20070;-61
2023/02/19 07:14:39;;;;;;;2.70;1.35;;;9.30;90.60;;;;;;5023553;28;20076;-62
2023/02/19 07:17:06;;;;;;;2.33;1.13;;;9.30;90.70;;;;;;5064480;28;20052;-63
2023/02/19 07:19:33;;;;;;;2.10;1.13;;;9.30;90.80;;;;;;5061835;28;20056;-62
2023/02/19 07:22:00;;;;;;;2.05;1.20;;;9.30;90.80;;;;;;5039325;28;20056;-61
2023/02/19 07:24:27;;;;;;;2.67;1.13;;;9.30;90.80;;;;;;4975505;28;20109;-63
2023/02/19 07:26:56;;;;;;;3.13;1.20;;;9.30;90.60;;;;;;4976479;28;20046;-61
2023/02/19 07:29:23;;;;;;;2.55;1.05;;;9.40;90.50;;;;;;4985642;28;20234;-62
2023/02/19 07:31:49;;;;;;;1.85;1.05;;;9.40;90.60;;;;;;4982667;28;20053;-63
2023/02/19 07:34:17;;;;;;;2.67;1.02;;;9.30;90.50;;;;;;5009360;28;20521;-61
2023/02/19 07:36:44;;;;;;;2.22;1.00;;;9.30;90.60;;;;;;4969970;28;20038;-61
2023/02/19 07:39:13;;;;;;;3.65;1.15;;;9.40;90.60;;;;;;4979379;28;20078;-61
2023/02/19 07:41:39;;;;;;;3.45;1.25;;;9.30;90.50;;;;;;4989693;28;20051;-62
2023/02/19 07:44:08;;;;;;;1.98;1.10;;;9.30;90.40;;;;;;4980501;28;20046;-61
2023/02/19 07:46:35;;;;;;;2.53;1.30;;;9.40;90.30;;;;;;4988468;28;20497;-61
2023/02/19 07:49:01;;;;;;;2.50;1.08;;;9.40;90.40;;;;;;4980648;28;20065;-62
2023/02/19 07:51:28;;;;;;;3.35;1.33;;;9.40;90.20;;;;;;4987429;28;20058;-61
2023/02/19 07:53:55;;;;;;;3.22;1.60;;;9.40;90.20;;;;;;4984966;28;20050;-62
2023/02/19 07:56:22;;;;;;;3.63;1.38;;;9.40;90.10;;;;;;4985217;28;20046;-61
2023/02/19 07:58:49;;;;;;;2.42;0.93;;;9.40;90.20;;;;;;4984191;28;20056;-61
2023/02/19 08:02:58;;;;;;;3.80;1.13;;;9.40;90.10;;;;;;4980085;28;20085;-63
2023/02/19 08:04:05;;;;;;;2.45;1.10;;;9.40;90.10;;;;;;4985933;28;20045;-62
2023/02/19 08:06:32;;;;;;;2.55;1.02;;;9.40;90.00;;;;;;4977389;28;20060;-62
2023/02/19 08:08:59;;;;;;;2.75;1.08;;;9.40;89.90;;;;;;4977888;28;20457;-61
2023/02/19 08:14:13;;;;;;;2.75;1.00;;;9.40;90.00;;;;;;4984049;28;20904;-62
2023/02/19 08:16:48;;;;;;;1.33;0.77;;;9.40;89.90;;;;;;4986027;28;20060;-62
2023/02/19 08:19:15;;;;;;;1.70;0.85;;;9.40;89.90;;;;;;4989716;28;20046;-62
2023/02/19 08:21:42;;;;;;;1.77;0.90;;;9.40;89.90;;;;;;4987196;28;20046;-62
2023/02/19 08:24:09;;;;;;;2.13;0.98;;;9.50;89.90;;;;;;4986701;28;20146;-61
2023/02/19 08:26:36;;;;;;;2.50;0.70;;;9.50;89.80;;;;;;4987022;28;20049;-61
2023/02/19 08:29:04;;;;;;;2.33;0.90;;;9.50;89.90;;;;;;4994714;28;20419;-62
2023/02/19 08:31:31;;;;;;;2.20;0.80;;;9.60;89.90;;;;;;4973848;28;20059;-60
2023/02/19 08:33:59;;;;;;;1.75;0.82;;;9.60;89.70;;;;;;4975602;28;20043;-60
2023/02/19 08:36:26;;;;;;;1.40;0.63;;;9.60;89.80;;;;;;4984457;28;20061;-61
2023/02/19 08:38:53;;;;;;;2.38;0.82;;;9.60;89.70;;;;;;4986428;28;20049;-60
2023/02/19 08:41:21;;;;;;;2.30;1.00;;;9.60;89.80;;;;;;4979624;28;20054;-68
2023/02/19 08:43:49;;;;;;;2.88;0.98;;;9.60;89.80;;;;;;4974652;28;20156;-68
2023/02/19 08:46:15;;;;;;;3.03;0.90;;;9.70;89.90;;;;;;4977817;28;20512;-67
2023/02/19 08:48:42;;;;;;;3.17;0.77;;;9.60;89.80;;;;;;4975914;28;20424;-68
2023/02/19 08:51:11;;;;;;;2.78;0.80;;;9.70;89.90;;;;;;4984959;28;20061;-69
2023/02/19 08:53:40;;;;;;;3.17;1.00;;;9.70;89.90;;;;;;4977550;28;20059;-68
2023/02/19 08:56:08;;;;;;;2.05;0.85;;;9.60;89.90;;;;;;4988678;28;20092;-65
2023/02/19 08:58:36;;;;;;;3.15;1.05;;;9.60;90.10;;;;;;4987687;28;21005;-65
2023/02/19 09:01:03;;;;;;;2.42;0.80;;;9.70;90.00;;;;;;4970847;28;20043;-65
2023/02/19 09:03:30;;;;;;;2.10;0.95;;;9.70;90.00;;;;;;4982950;28;20059;-66
2023/02/19 09:05:57;;;;;;;2.95;1.20;;;9.70;89.90;;;;;;4986457;28;20046;-65
2023/02/19 09:08:25;;;;;;;1.95;0.90;;;9.80;89.80;;;;;;4983119;28;20038;-66
2023/02/19 09:10:58;;;;;;;3.22;1.20;;;9.80;89.70;;;;;;4992825;28;20057;-65
2023/02/19 09:13:25;;;;;;;5.32;1.20;;;9.90;89.90;;;;;;4980513;28;20062;-64
2023/02/19 09:15:52;;;;;;;2.47;0.98;;;9.80;89.90;;;;;;4987265;28;20413;-65
2023/02/19 09:18:19;;;;;;;3.45;1.33;;;9.80;89.90;;;;;;4985244;28;20183;-65
2023/02/19 09:20:46;;;;;;;3.35;1.25;;;9.80;89.90;;;;;;4981771;28;20515;-66
2023/02/19 09:23:12;;;;;;;1.88;1.00;;;9.70;89.80;;;;;;4984950;28;20058;-67
2023/02/19 09:25:41;;;;;;;2.60;1.02;;;9.80;89.90;;;;;;4990499;28;20414;-66
2023/02/19 09:28:08;;;;;;;2.50;1.00;;;9.70;90.00;;;;;;4979869;28;20058;-64
2023/02/19 09:30:35;;;;;;;2.78;1.23;;;9.70;90.20;;;;;;4974287;28;20578;-66
2023/02/19 09:33:05;;;;;;;2.97;1.38;;;9.70;90.00;;;;;;4989340;28;20042;-65
2023/02/19 09:35:32;;;;;;;3.78;1.40;;;9.70;90.20;;;;;;4984291;28;20807;-66
2023/02/19 09:37:59;;;;;;;3.67;1.23;;;9.70;90.40;;;;;;4974864;28;20067;-65
2023/02/19 09:40:26;;;;;;;2.28;1.17;;;9.70;90.20;;;;;;4991171;28;20129;-65
2023/02/19 09:42:55;;;;;;;4.38;1.38;;;9.70;90.30;;;;;;4986740;28;20049;-65
2023/02/19 09:45:25;;;;;;;1.65;1.00;;;9.70;90.20;;;;;;4967668;28;20135;-65
2023/02/19 09:47:55;;;;;;;3.38;1.42;;;9.70;90.30;;;;;;4977697;28;20054;-66
2023/02/19 09:50:33;;;;;;;4.63;1.40;;;9.70;90.30;;;;;;5020845;28;21181;-66
2023/02/19 09:53:05;;;;;;;3.33;1.20;;;9.70;90.20;;;;;;4977688;28;20077;-66
2023/02/19 09:55:35;;;;;;;2.53;1.25;;;9.70;90.20;;;;;;4990084;28;20042;-61
2023/02/19 09:58:20;;;;;;;3.35;1.25;;;9.70;90.10;;;;;;4966811;28;20481;-61
2023/02/19 10:00:49;;;;;;;2.78;1.30;;;9.70;90.30;;;;;;4979838;28;20047;-60
2023/02/19 10:03:24;;;;;;;4.00;1.27;;;9.70;90.20;;;;;;4974441;28;21120;-61
2023/02/19 10:05:52;;;;;;;3.38;1.30;;;9.70;90.40;;;;;;5002014;28;20051;-61
2023/02/19 10:08:21;;;;;;;2.00;0.98;;;9.70;90.30;;;;;;4985183;28;20173;-60
2023/02/19 10:10:47;;;;;;;3.75;1.40;;;9.80;90.20;;;;;;4990483;28;20054;-59
2023/02/19 10:13:19;;;;;;;3.50;1.60;;;9.70;90.40;;;;;;4979447;28;20047;-60
2023/02/19 10:15:49;;;;;;;3.63;1.42;;;9.70;90.10;;;;;;4985858;28;20047;-59
2023/02/19 10:18:22;;;;;;;4.20;1.40;;;9.70;90.30;;;;;;4979928;28;20061;-59
2023/02/19 10:20:51;;;;;;;2.90;1.15;;;9.70;90.10;;;;;;5017058;28;20042;-60
2023/02/19 10:23:18;;;;;;;3.70;1.45;;;9.70;90.50;;;;;;4964549;28;20047;-60
2023/02/19 10:25:48;;;;;;;4.35;1.55;;;9.80;90.60;;;;;;4976403;28;20061;-60
2023/02/19 10:28:18;;;;;;;5.15;1.52;;;9.70;90.40;;;;;;4983675;28;20064;-60
2023/02/19 10:30:51;;;;;;;2.85;1.40;;;9.90;90.30;;;;;;4972877;28;20059;-60
2023/02/19 10:33:19;;;;;;;4.60;1.50;;;9.90;90.30;;;;;;4963764;28;20058;-61
2023/02/19 10:35:55;;;;;;;3.80;1.40;;;9.90;90.20;;;;;;4978178;28;20058;-59
2023/02/19 10:38:27;;;;;;;2.65;1.38;;;9.90;90.10;;;;;;4975612;28;20144;-60
2023/02/19 10:41:00;;;;;;;5.50;1.77;;;9.90;90.30;;;;;;4978473;28;20099;-61
2023/02/19 10:43:35;;;;;;;4.20;1.75;;;10.00;90.10;;;;;;4977999;28;20044;-59
2023/02/19 10:46:06;;;;;;;4.35;2.00;;;10.10;90.20;;;;;;4986605;28;20046;-60
2023/02/19 10:48:36;;;;;;;3.47;1.67;;;10.10;90.10;;;;;;4984122;28;20046;-59
2023/02/19 10:51:06;;;;;;;3.45;1.70;;;10.10;90.10;;;;;;4984343;28;20047;-60
2023/02/19 10:53:42;;;;;;;5.25;1.88;;;10.10;90.20;;;;;;4989284;28;20069;-59
2023/02/19 10:56:12;;;;;;;4.20;2.15;;;10.10;90.00;;;;;;4977512;28;20051;-59
2023/02/19 10:58:43;;;;;;;5.05;1.92;;;10.20;90.10;;;;;;4983422;28;20042;-60
2023/02/19 11:01:22;;;;;;;6.93;2.00;;;10.20;90.10;;;;;;4984626;28;20058;-60
2023/02/19 11:03:50;;;;;;;4.25;1.92;;;10.20;90.00;;;;;;4977448;28;20042;-59
2023/02/19 11:06:20;;;;;;;5.45;2.28;;;10.20;89.90;;;;;;4986604;28;20507;-59
2023/02/19 11:08:54;;;;;;;4.85;2.10;;;10.20;89.90;;;;;;4982503;28;20074;-60
2023/02/19 11:11:31;;;;;;;4.38;2.22;;;10.30;89.80;;;;;;4981869;28;20050;-59
2023/02/19 11:14:02;;;;;;;3.78;2.20;;;10.30;90.00;;;;;;4983089;28;20051;-59
2023/02/19 11:16:47;;;;;;;5.78;2.20;;;10.30;90.00;;;;;;4991215;28;20407;-66
2023/02/19 11:19:31;;;;;;;6.03;2.25;;;10.30;90.10;;;;;;4979499;28;20050;-67
2023/02/19 11:21:59;;;;;;;5.43;2.72;;;10.30;90.00;;;;;;4983370;28;20073;-67
2023/02/19 11:24:32;;;;;;;6.82;2.38;;;10.20;90.20;;;;;;4977769;28;20549;-67
2023/02/19 11:27:01;;;;;;;4.90;2.38;;;10.30;90.10;;;;;;4987253;28;20134;-67
2023/02/19 11:29:33;;;;;;;8.05;2.22;;;10.30;90.10;;;;;;4979991;28;20060;-67
2023/02/19 11:32:26;;;;;;;7.22;2.38;;;10.20;90.10;;;;;;4977912;28;20046;-66
2023/02/19 11:35:16;;;;;;;5.18;2.40;;;10.30;90.10;;;;;;4983512;28;20042;-68
2023/02/19 11:37:55;;;;;;;4.93;2.33;;;10.20;90.20;;;;;;4982619;28;20069;-67
2023/02/19 11:40:30;;;;;;;6.93;2.35;;;10.20;90.00;;;;;;4982623;28;20073;-66
2023/02/19 11:43:07;;;;;;;5.43;2.17;;;10.20;89.90;;;;;;4986541;28;20397;-66
2023/02/19 11:45:44;;;;;;;5.53;2.50;;;10.20;89.80;;;;;;4983963;28;20042;-66
2023/02/19 11:48:41;;;;;;;5.00;2.20;;;10.20;89.80;;;;;;4982132;28;20212;-69
2023/02/19 11:51:38;;;;;;;5.53;2.53;;;10.20;89.90;;;;;;4989676;28;20047;-67
2023/02/19 11:54:20;;;;;;;6.60;2.75;;;10.20;90.00;;;;;;5043775;28;20048;-65
2023/02/19 11:57:17;;;;;;;4.40;2.08;;;10.10;90.00;;;;;;5060395;28;20045;-67
2023/02/19 11:59:48;;;;;;;4.47;2.50;;;10.10;90.00;;;;;;5060359;28;20041;-67
2023/02/19 12:02:30;;;;;;;6.70;2.22;;;10.10;89.90;;;;;;4994199;28;20059;-67
2023/02/19 12:05:11;;;;;;;4.55;2.15;;;10.10;89.80;;;;;;4960228;28;20055;-68
2023/02/19 12:08:20;;;;;;;5.82;2.08;;;10.20;89.80;;;;;;4986956;28;20055;-68
2023/02/19 12:19:38;;;;;;;5.05;2.25;;;10.20;89.50;;;;;;5841160;22;20047;-60
2023/02/19 12:22:21;;;;;;;5.18;2.38;;;10.20;89.50;;;;;;4978496;28;20061;-60
2023/02/19 12:25:14;;;;;;;5.38;2.42;;;10.30;89.50;;;;;;4978882;28;20050;-60
2023/02/19 12:27:50;;;;;;;5.55;2.40;;;10.30;89.40;;;;;;4984851;28;20424;-60
2023/02/19 12:30:32;;;;;;;5.15;2.42;;;10.40;89.30;;;;;;4975921;28;20416;-61
2023/02/19 12:33:23;;;;;;;6.15;2.75;;;10.40;89.10;;;;;;4989230;28;20058;-60
2023/02/19 12:36:05;;;;;;;6.38;3.00;;;10.40;89.10;;;;;;4945793;28;20116;-60
2023/02/19 12:38:42;;;;;;;5.75;2.75;;;10.40;88.90;;;;;;4984477;28;20069;-60
2023/02/19 12:41:20;;;;;;;5.93;2.97;;;10.40;88.70;;;;;;4990769;28;20050;-61
2023/02/19 12:43:53;;;;;;;5.38;3.00;;;10.50;88.70;;;;;;4989377;28;20105;-59
2023/02/19 12:46:27;;;;;;;7.13;2.90;;;10.50;88.60;;;;;;4987510;28;20061;-60
2023/02/19 12:49:01;;;;;;;6.90;3.38;;;10.50;88.60;;;;;;4990878;28;20046;-60
2023/02/19 12:51:36;;;;;;;6.43;2.75;;;10.50;88.70;;;;;;4988847;28;20053;-59
2023/02/19 12:54:10;;;;;;;6.68;2.78;;;10.50;88.60;;;;;;4987876;28;20057;-59
2023/02/19 12:56:42;;;;;;;5.43;3.00;;;10.50;88.70;;;;;;4988684;28;20061;-60
2023/02/19 12:59:15;;;;;;;4.97;3.05;;;10.50;88.70;;;;;;4989611;28;20054;-60
2023/02/19 13:01:48;;;;;;;7.10;3.47;;;10.50;88.70;;;;;;4987428;28;20054;-61
2023/02/19 13:04:22;;;;;;;7.70;3.25;;;10.50;88.70;;;;;;4981089;28;20414;-61
2023/02/19 13:06:56;;;;;;;5.93;3.33;;;10.60;88.80;;;;;;4984880;28;20157;-59
2023/02/19 13:09:29;;;;;;;5.28;3.13;;;10.60;88.60;;;;;;4985158;28;20138;-59
2023/02/19 13:12:03;;;;;;;7.57;3.53;;;10.60;88.40;;;;;;4988705;28;20046;-60
2023/02/19 13:14:34;;;;;;;7.03;3.40;;;10.60;88.30;;;;;;4989176;28;20061;-59
2023/02/19 13:17:08;;;;;;;8.23;3.83;;;10.50;88.00;;;;;;4984589;28;20046;-60
2023/02/19 13:19:37;;;;;;;8.63;4.05;;;10.50;88.10;;;;;;4987496;28;20046;-60
2023/02/19 13:25:07;;;;;;;8.13;4.32;;;10.50;87.60;;;;;;4909484;28;20052;-58
2023/02/19 13:28:00;;;;;;;6.78;4.03;;;10.60;87.40;;;;;;4989354;28;20054;-61
2023/02/19 13:30:53;;;;;;;9.10;3.97;;;10.60;87.10;;;;;;4981776;28;20064;-61
2023/02/19 13:33:33;;;;;;;7.72;4.32;;;10.70;87.30;;;;;;4985529;28;20054;-61
2023/02/19 13:36:07;;;;;;;6.05;3.70;;;10.70;87.00;;;;;;4987077;28;20132;-60
2023/02/19 13:38:38;;;;;;;7.35;3.88;;;10.70;86.70;;;;;;4989725;28;20050;-60
2023/02/19 13:41:06;;;;;;;7.28;3.60;;;10.70;86.40;;;;;;4988001;28;20066;-60
2023/02/19 13:43:37;;;;;;;6.55;3.50;;;10.80;86.60;;;;;;4988088;28;20050;-62
2023/02/19 13:46:08;;;;;;;8.13;3.63;;;10.80;86.40;;;;;;4989318;28;20074;-57
2023/02/19 13:48:37;;;;;;;8.15;3.33;;;10.80;86.30;;;;;;4987592;28;20047;-58